sensor_id;sensor_type;location;lat;lon;timestamp;pressure;altitude;pressure_sealevel;temperature;humidity
62524;BME280;53689;56.878;60.672;2022-09-12T00:00:35;98353.06;;;22.43;33.66
62524;BME280;53689;56.878;60.672;2022-09-12T00:03:04;98353.91;;;22.43;32.62
62524;BME280;53689;56.878;60.672;2022-09-12T00:05:32;98359.94;;;22.45;33.13
62524;BME280;53689;56.878;60.672;2022-09-12T00:07:59;98355.59;;;22.44;33.20
62524;BME280;53689;56.878;60.672;2022-09-12T00:10:27;98356.22;;;22.47;33.12
62524;BME280;53689;56.878;60.672;2022-09-12T00:12:54;98359.72;;;22.47;33.07
62524;BME280;53689;56.878;60.672;2022-09-12T00:15:22;98359.72;;;22.47;33.18
62524;BME280;53689;56.878;60.672;2022-09-12T00:17:49;98364.50;;;22.45;33.00
62524;BME280;53689;56.878;60.672;2022-09-12T00:20:18;98361.41;;;22.48;33.38
62524;BME280;53689;56.878;60.672;2022-09-12T00:22:46;98370.72;;;22.45;33.35
62524;BME280;53689;56.878;60.672;2022-09-12T00:25:13;98366.81;;;22.48;33.20
62524;BME280;53689;56.878;60.672;2022-09-12T00:27:41;98373.81;;;22.42;32.92
62524;BME280;53689;56.878;60.672;2022-09-12T00:30:09;98377.53;;;22.41;33.47
62524;BME280;53689;56.878;60.672;2022-09-12T00:32:36;98379.88;;;22.44;32.99
62524;BME280;53689;56.878;60.672;2022-09-12T00:35:04;98378.59;;;22.40;33.34
62524;BME280;53689;56.878;60.672;2022-09-12T00:37:34;98380.06;;;22.43;33.31
62524;BME280;53689;56.878;60.672;2022-09-12T00:40:02;98379.22;;;22.42;33.14
62524;BME280;53689;56.878;60.672;2022-09-12T00:42:30;98383.78;;;22.42;33.58
62524;BME280;53689;56.878;60.672;2022-09-12T00:44:58;98378.19;;;22.43;33.25
62524;BME280;53689;56.878;60.672;2022-09-12T00:47:27;98383.19;;;22.47;33.11
62524;BME280;53689;56.878;60.672;2022-09-12T00:50:03;98382.00;;;22.49;33.20
62524;BME280;53689;56.878;60.672;2022-09-12T00:52:36;98387.09;;;22.44;33.00
62524;BME280;53689;56.878;60.672;2022-09-12T00:55:09;98386.50;;;22.49;32.83
62524;BME280;53689;56.878;60.672;2022-09-12T00:57:40;98383.19;;;22.47;32.86
62524;BME280;53689;56.878;60.672;2022-09-12T01:00:11;98394.44;;;22.50;33.17
62524;BME280;53689;56.878;60.672;2022-09-12T01:02:40;98391.75;;;22.50;32.97
62524;BME280;53689;56.878;60.672;2022-09-12T01:05:09;98391.91;;;22.49;33.03
62524;BME280;53689;56.878;60.672;2022-09-12T01:07:39;98392.78;;;22.49;32.90
62524;BME280;53689;56.878;60.672;2022-09-12T01:10:08;98400.00;;;22.49;33.19
62524;BME280;53689;56.878;60.672;2022-09-12T01:12:38;98400.00;;;22.49;32.73
62524;BME280;53689;56.878;60.672;2022-09-12T01:15:06;98401.03;;;22.48;33.13
62524;BME280;53689;56.878;60.672;2022-09-12T01:17:41;98399.19;;;22.48;32.87
62524;BME280;53689;56.878;60.672;2022-09-12T01:20:38;98397.50;;;22.47;33.10
62524;BME280;53689;56.878;60.672;2022-09-12T01:23:31;98405.22;;;22.50;33.16
62524;BME280;53689;56.878;60.672;2022-09-12T01:26:26;98406.63;;;22.46;32.78
62524;BME280;53689;56.878;60.672;2022-09-12T01:29:17;98406.63;;;22.46;32.95
62524;BME280;53689;56.878;60.672;2022-09-12T01:31:54;98411.19;;;22.45;32.83
62524;BME280;53689;56.878;60.672;2022-09-12T01:34:28;98402.25;;;22.45;33.38
62524;BME280;53689;56.878;60.672;2022-09-12T01:37:07;98405.19;;;22.43;33.34
62524;BME280;53689;56.878;60.672;2022-09-12T01:39:42;98410.13;;;22.40;32.81
62524;BME280;53689;56.878;60.672;2022-09-12T01:42:17;98410.75;;;22.42;33.26
62524;BME280;53689;56.878;60.672;2022-09-12T01:44:53;98409.09;;;22.41;33.26
62524;BME280;53689;56.878;60.672;2022-09-12T01:47:29;98408.47;;;22.39;33.10
62524;BME280;53689;56.878;60.672;2022-09-12T01:50:02;98414.28;;;22.42;33.13
62524;BME280;53689;56.878;60.672;2022-09-12T01:52:36;98417.56;;;22.38;32.89
62524;BME280;53689;56.878;60.672;2022-09-12T01:55:08;98419.03;;;22.40;32.67
62524;BME280;53689;56.878;60.672;2022-09-12T01:57:42;98422.78;;;22.39;33.20
62524;BME280;53689;56.878;60.672;2022-09-12T02:00:11;98427.97;;;22.41;32.67
62524;BME280;53689;56.878;60.672;2022-09-12T02:02:44;98427.34;;;22.39;33.25
62524;BME280;53689;56.878;60.672;2022-09-12T02:05:17;98430.88;;;22.39;32.75
62524;BME280;53689;56.878;60.672;2022-09-12T02:07:50;98433.38;;;22.41;32.82
62524;BME280;53689;56.878;60.672;2022-09-12T02:10:21;98433.97;;;22.36;33.00
62524;BME280;53689;56.878;60.672;2022-09-12T02:12:53;98436.84;;;22.35;33.16
62524;BME280;53689;56.878;60.672;2022-09-12T02:15:26;98438.09;;;22.32;33.12
62524;BME280;53689;56.878;60.672;2022-09-12T02:17:58;98445.13;;;22.33;33.03
62524;BME280;53689;56.878;60.672;2022-09-12T02:20:28;98444.31;;;22.33;32.99
62524;BME280;53689;56.878;60.672;2022-09-12T02:23:17;98448.28;;;22.37;32.93
62524;BME280;53689;56.878;60.672;2022-09-12T02:25:51;98451.19;;;22.07;33.80
62524;BME280;53689;56.878;60.672;2022-09-12T02:28:23;98451.88;;;21.87;34.27
62524;BME280;53689;56.878;60.672;2022-09-12T02:30:59;98459.88;;;22.02;33.82
62524;BME280;53689;56.878;60.672;2022-09-12T02:33:36;98454.81;;;22.21;33.30
62524;BME280;53689;56.878;60.672;2022-09-12T02:36:12;98461.09;;;22.28;33.46
62524;BME280;53689;56.878;60.672;2022-09-12T02:38:44;98462.94;;;22.27;33.28
62524;BME280;53689;56.878;60.672;2022-09-12T02:41:14;98459.41;;;22.20;33.26
62524;BME280;53689;56.878;60.672;2022-09-12T02:43:43;98461.44;;;22.18;33.71
62524;BME280;53689;56.878;60.672;2022-09-12T02:46:20;98461.69;;;22.23;33.60
62524;BME280;53689;56.878;60.672;2022-09-12T02:48:50;98460.22;;;22.21;33.44
62524;BME280;53689;56.878;60.672;2022-09-12T02:51:17;98461.69;;;22.23;33.51
62524;BME280;53689;56.878;60.672;2022-09-12T02:53:50;98466.66;;;22.20;33.77
62524;BME280;53689;56.878;60.672;2022-09-12T02:56:21;98462.09;;;22.20;33.17
62524;BME280;53689;56.878;60.672;2022-09-12T02:58:50;98465.44;;;22.22;33.68
62524;BME280;53689;56.878;60.672;2022-09-12T03:01:28;98471.88;;;22.28;33.19
62524;BME280;53689;56.878;60.672;2022-09-12T03:04:18;98467.09;;;22.23;33.60
62524;BME280;53689;56.878;60.672;2022-09-12T03:06:54;98471.38;;;21.89;34.37
62524;BME280;53689;56.878;60.672;2022-09-12T03:09:34;98481.84;;;21.33;35.19
62524;BME280;53689;56.878;60.672;2022-09-12T03:12:10;98475.81;;;21.97;33.88
62524;BME280;53689;56.878;60.672;2022-09-12T03:14:51;98479.06;;;22.14;33.75
62524;BME280;53689;56.878;60.672;2022-09-12T03:17:26;98475.94;;;22.17;33.72
62524;BME280;53689;56.878;60.672;2022-09-12T03:19:59;98475.72;;;22.12;33.76
62524;BME280;53689;56.878;60.672;2022-09-12T03:22:33;98479.94;;;22.21;33.58
62524;BME280;53689;56.878;60.672;2022-09-12T03:25:13;98474.31;;;22.23;33.10
62524;BME280;53689;56.878;60.672;2022-09-12T03:27:45;98478.31;;;22.27;33.45
62524;BME280;53689;56.878;60.672;2022-09-12T03:30:18;98476.22;;;22.22;33.53
62524;BME280;53689;56.878;60.672;2022-09-12T03:32:48;98480.03;;;22.06;34.41
62524;BME280;53689;56.878;60.672;2022-09-12T03:35:17;98483.41;;;22.15;33.85
62524;BME280;53689;56.878;60.672;2022-09-12T03:37:50;98478.66;;;22.17;33.67
62524;BME280;53689;56.878;60.672;2022-09-12T03:40:18;98490.91;;;22.20;33.75
62524;BME280;53689;56.878;60.672;2022-09-12T03:42:45;98489.22;;;22.12;33.71
62524;BME280;53689;56.878;60.672;2022-09-12T03:45:14;98486.09;;;22.15;33.85
62524;BME280;53689;56.878;60.672;2022-09-12T03:47:42;98483.91;;;22.25;33.56
62524;BME280;53689;56.878;60.672;2022-09-12T03:50:09;98498.84;;;22.28;33.90
62524;BME280;53689;56.878;60.672;2022-09-12T03:52:38;98489.34;;;22.03;34.77
62524;BME280;53689;56.878;60.672;2022-09-12T03:55:06;98496.81;;;22.01;34.58
62524;BME280;53689;56.878;60.672;2022-09-12T03:57:34;98499.69;;;22.00;34.59
62524;BME280;53689;56.878;60.672;2022-09-12T04:00:02;98494.34;;;22.07;33.97
62524;BME280;53689;56.878;60.672;2022-09-12T04:02:38;98497.63;;;22.02;34.12
62524;BME280;53689;56.878;60.672;2022-09-12T04:05:06;98498.06;;;22.06;34.24
62524;BME280;53689;56.878;60.672;2022-09-12T04:07:33;98501.41;;;22.08;34.34
62524;BME280;53689;56.878;60.672;2022-09-12T04:10:03;98503.50;;;22.12;33.82
62524;BME280;53689;56.878;60.672;2022-09-12T04:12:30;98502.09;;;22.16;34.17
62524;BME280;53689;56.878;60.672;2022-09-12T04:14:58;98503.81;;;22.24;34.09
62524;BME280;53689;56.878;60.672;2022-09-12T04:17:25;98506.06;;;22.21;33.91
62524;BME280;53689;56.878;60.672;2022-09-12T04:19:55;98513.78;;;22.02;34.51
62524;BME280;53689;56.878;60.672;2022-09-12T04:22:23;98515.34;;;21.89;35.07
62524;BME280;53689;56.878;60.672;2022-09-12T04:24:50;98512.09;;;21.94;34.95
62524;BME280;53689;56.878;60.672;2022-09-12T04:27:19;98519.28;;;21.87;34.74
62524;BME280;53689;56.878;60.672;2022-09-12T04:29:47;98521.97;;;21.87;34.96
62524;BME280;53689;56.878;60.672;2022-09-12T04:32:15;98521.50;;;21.83;34.51
62524;BME280;53689;56.878;60.672;2022-09-12T04:34:42;98525.63;;;21.79;34.58
62524;BME280;53689;56.878;60.672;2022-09-12T04:37:10;98526.31;;;21.66;35.10
62524;BME280;53689;56.878;60.672;2022-09-12T04:39:38;98526.09;;;21.83;34.69
62524;BME280;53689;56.878;60.672;2022-09-12T04:42:05;98531.66;;;21.81;34.84
62524;BME280;53689;56.878;60.672;2022-09-12T04:44:34;98535.13;;;21.97;34.80
62524;BME280;53689;56.878;60.672;2022-09-12T04:47:02;98530.81;;;21.81;35.30
62524;BME280;53689;56.878;60.672;2022-09-12T04:49:30;98532.94;;;21.85;35.29
62524;BME280;53689;56.878;60.672;2022-09-12T04:51:57;98534.41;;;21.88;34.78
62524;BME280;53689;56.878;60.672;2022-09-12T04:54:25;98535.38;;;22.02;34.08
62524;BME280;53689;56.878;60.672;2022-09-12T04:56:52;98536.72;;;22.13;33.61
62524;BME280;53689;56.878;60.672;2022-09-12T04:59:21;98540.72;;;22.24;33.82
62524;BME280;53689;56.878;60.672;2022-09-12T05:01:50;98539.63;;;22.18;33.84
62524;BME280;53689;56.878;60.672;2022-09-12T05:04:17;98540.94;;;22.22;33.68
62524;BME280;53689;56.878;60.672;2022-09-12T05:06:45;98539.72;;;22.25;33.60
62524;BME280;53689;56.878;60.672;2022-09-12T05:09:13;98538.91;;;22.02;34.38
62524;BME280;53689;56.878;60.672;2022-09-12T05:11:42;98552.00;;;21.47;35.35
62524;BME280;53689;56.878;60.672;2022-09-12T05:14:29;98544.53;;;20.67;36.65
62524;BME280;53689;56.878;60.672;2022-09-12T05:16:58;98554.75;;;20.72;36.97
62524;BME280;53689;56.878;60.672;2022-09-12T05:19:26;98554.34;;;20.45;36.81
62524;BME280;53689;56.878;60.672;2022-09-12T05:21:54;98555.78;;;21.68;34.83
62524;BME280;53689;56.878;60.672;2022-09-12T05:24:21;98552.38;;;22.02;34.24
62524;BME280;53689;56.878;60.672;2022-09-12T05:26:49;98554.09;;;22.10;34.39
62524;BME280;53689;56.878;60.672;2022-09-12T05:29:16;98552.97;;;22.26;33.92
62524;BME280;53689;56.878;60.672;2022-09-12T05:31:44;98551.31;;;22.25;34.28
62524;BME280;53689;56.878;60.672;2022-09-12T05:34:13;98553.38;;;22.23;33.69
62524;BME280;53689;56.878;60.672;2022-09-12T05:36:40;98554.06;;;22.32;33.85
62524;BME280;53689;56.878;60.672;2022-09-12T05:39:08;98551.38;;;22.32;33.80
62524;BME280;53689;56.878;60.672;2022-09-12T05:41:35;98558.00;;;22.29;34.10
62524;BME280;53689;56.878;60.672;2022-09-12T05:44:05;98558.50;;;22.18;34.41
62524;BME280;53689;56.878;60.672;2022-09-12T05:46:36;98556.31;;;22.28;33.98
62524;BME280;53689;56.878;60.672;2022-09-12T05:49:05;98564.66;;;22.34;34.11
62524;BME280;53689;56.878;60.672;2022-09-12T05:51:36;98565.66;;;22.26;34.15
62524;BME280;53689;56.878;60.672;2022-09-12T05:54:06;98561.66;;;22.22;34.08
62524;BME280;53689;56.878;60.672;2022-09-12T05:56:37;98557.31;;;22.21;34.36
62524;BME280;53689;56.878;60.672;2022-09-12T05:59:09;98565.56;;;22.19;34.40
62524;BME280;53689;56.878;60.672;2022-09-12T06:01:37;98562.38;;;22.30;34.12
62524;BME280;53689;56.878;60.672;2022-09-12T06:04:05;98561.28;;;22.25;34.13
62524;BME280;53689;56.878;60.672;2022-09-12T06:06:37;98564.19;;;22.23;34.41
62524;BME280;53689;56.878;60.672;2022-09-12T06:09:05;98574.56;;;22.26;34.34
62524;BME280;53689;56.878;60.672;2022-09-12T06:11:34;98559.41;;;22.25;34.65
62524;BME280;53689;56.878;60.672;2022-09-12T06:14:02;98556.75;;;22.32;33.80
62524;BME280;53689;56.878;60.672;2022-09-12T06:16:31;98562.59;;;22.36;34.15
62524;BME280;53689;56.878;60.672;2022-09-12T06:19:00;98564.19;;;22.52;33.75
62524;BME280;53689;56.878;60.672;2022-09-12T06:21:28;98563.00;;;22.61;33.21
62524;BME280;53689;56.878;60.672;2022-09-12T06:23:57;98562.38;;;22.59;33.14
62524;BME280;53689;56.878;60.672;2022-09-12T06:26:25;98561.72;;;22.50;33.46
62524;BME280;53689;56.878;60.672;2022-09-12T06:28:55;98564.91;;;22.61;33.16
62524;BME280;53689;56.878;60.672;2022-09-12T06:31:24;98563.59;;;22.56;33.49
62524;BME280;53689;56.878;60.672;2022-09-12T06:33:53;98559.47;;;22.54;33.21
62524;BME280;53689;56.878;60.672;2022-09-12T06:36:22;98553.25;;;22.60;33.29
62524;BME280;53689;56.878;60.672;2022-09-12T06:38:53;98549.25;;;22.49;33.30
62524;BME280;53689;56.878;60.672;2022-09-12T06:41:23;98558.72;;;22.45;33.79
62524;BME280;53689;56.878;60.672;2022-09-12T06:43:52;98560.78;;;22.43;33.98
62524;BME280;53689;56.878;60.672;2022-09-12T06:46:20;98560.34;;;22.39;33.94
62524;BME280;53689;56.878;60.672;2022-09-12T06:48:48;98561.84;;;22.42;33.65
62524;BME280;53689;56.878;60.672;2022-09-12T06:51:17;98562.66;;;22.42;33.60
62524;BME280;53689;56.878;60.672;2022-09-12T06:53:46;98561.25;;;22.47;33.89
62524;BME280;53689;56.878;60.672;2022-09-12T06:56:16;98554.66;;;22.49;33.78
62524;BME280;53689;56.878;60.672;2022-09-12T06:58:47;98553.91;;;22.40;34.33
62524;BME280;53689;56.878;60.672;2022-09-12T07:01:16;98553.78;;;21.98;35.19
62524;BME280;53689;56.878;60.672;2022-09-12T07:03:47;98556.66;;;21.38;35.73
62524;BME280;53689;56.878;60.672;2022-09-12T07:06:17;98551.88;;;21.55;34.85
62524;BME280;53689;56.878;60.672;2022-09-12T07:08:45;98552.59;;;21.64;34.59
62524;BME280;53689;56.878;60.672;2022-09-12T07:11:16;98555.41;;;21.04;35.61
62524;BME280;53689;56.878;60.672;2022-09-12T07:13:47;98560.22;;;21.24;34.72
62524;BME280;53689;56.878;60.672;2022-09-12T07:16:15;98555.22;;;21.20;34.76
62524;BME280;53689;56.878;60.672;2022-09-12T07:18:49;98554.31;;;20.83;36.45
62524;BME280;53689;56.878;60.672;2022-09-12T07:21:17;98548.25;;;20.81;36.43
62524;BME280;53689;56.878;60.672;2022-09-12T07:23:45;98550.09;;;20.80;36.30
62524;BME280;53689;56.878;60.672;2022-09-12T07:26:14;98554.66;;;20.80;36.09
62524;BME280;53689;56.878;60.672;2022-09-12T07:28:43;98559.50;;;21.00;35.68
62524;BME280;53689;56.878;60.672;2022-09-12T07:31:14;98554.50;;;20.97;35.51
62524;BME280;53689;56.878;60.672;2022-09-12T07:33:42;98549.00;;;20.75;36.18
62524;BME280;53689;56.878;60.672;2022-09-12T07:36:11;98566.16;;;20.59;35.60
62524;BME280;53689;56.878;60.672;2022-09-12T07:38:39;98554.56;;;20.58;35.55
62524;BME280;53689;56.878;60.672;2022-09-12T07:41:11;98560.59;;;20.60;35.08
62524;BME280;53689;56.878;60.672;2022-09-12T07:43:38;98557.03;;;20.45;35.39
62524;BME280;53689;56.878;60.672;2022-09-12T07:46:06;98558.34;;;20.10;35.44
62524;BME280;53689;56.878;60.672;2022-09-12T07:48:35;98559.13;;;20.19;35.51
62524;BME280;53689;56.878;60.672;2022-09-12T07:51:04;98561.28;;;20.24;37.99
62524;BME280;53689;56.878;60.672;2022-09-12T07:53:34;98560.28;;;20.40;36.55
62524;BME280;53689;56.878;60.672;2022-09-12T07:56:03;98559.66;;;20.53;35.87
62524;BME280;53689;56.878;60.672;2022-09-12T07:58:32;98567.34;;;20.71;36.00
62524;BME280;53689;56.878;60.672;2022-09-12T08:01:04;98561.56;;;20.83;35.44
62524;BME280;53689;56.878;60.672;2022-09-12T08:03:32;98564.97;;;20.76;35.37
62524;BME280;53689;56.878;60.672;2022-09-12T08:06:05;98572.75;;;20.71;34.94
62524;BME280;53689;56.878;60.672;2022-09-12T08:08:33;98566.97;;;20.44;34.74
62524;BME280;53689;56.878;60.672;2022-09-12T08:11:03;98572.22;;;20.37;34.89
62524;BME280;53689;56.878;60.672;2022-09-12T08:13:33;98565.28;;;20.43;34.33
62524;BME280;53689;56.878;60.672;2022-09-12T08:16:01;98567.69;;;20.38;33.87
62524;BME280;53689;56.878;60.672;2022-09-12T08:18:30;98569.81;;;20.28;34.21
62524;BME280;53689;56.878;60.672;2022-09-12T08:20:58;98568.97;;;20.27;34.40
62524;BME280;53689;56.878;60.672;2022-09-12T08:23:27;98571.13;;;20.47;33.55
62524;BME280;53689;56.878;60.672;2022-09-12T08:25:55;98567.84;;;20.21;34.08
62524;BME280;53689;56.878;60.672;2022-09-12T08:28:23;98568.84;;;20.20;34.21
62524;BME280;53689;56.878;60.672;2022-09-12T08:30:51;98573.94;;;20.15;34.21
62524;BME280;53689;56.878;60.672;2022-09-12T08:33:18;98572.75;;;20.18;34.28
62524;BME280;53689;56.878;60.672;2022-09-12T08:35:46;98567.97;;;20.43;33.64
62524;BME280;53689;56.878;60.672;2022-09-12T08:38:14;98571.44;;;20.14;34.13
62524;BME280;53689;56.878;60.672;2022-09-12T08:40:48;98572.59;;;20.34;34.34
62524;BME280;53689;56.878;60.672;2022-09-12T08:43:27;98570.41;;;20.53;33.15
62524;BME280;53689;56.878;60.672;2022-09-12T08:46:01;98567.84;;;20.21;33.42
62524;BME280;53689;56.878;60.672;2022-09-12T08:48:35;98576.94;;;20.20;33.58
62524;BME280;53689;56.878;60.672;2022-09-12T08:51:03;98571.59;;;20.50;33.41
62524;BME280;53689;56.878;60.672;2022-09-12T08:53:33;98572.81;;;20.48;33.95
62524;BME280;53689;56.878;60.672;2022-09-12T08:56:04;98564.09;;;20.46;34.56
62524;BME280;53689;56.878;60.672;2022-09-12T08:58:38;98568.66;;;20.60;33.84
62524;BME280;53689;56.878;60.672;2022-09-12T09:01:09;98568.31;;;21.09;34.06
62524;BME280;53689;56.878;60.672;2022-09-12T09:03:51;98566.94;;;21.49;32.63
62524;BME280;53689;56.878;60.672;2022-09-12T09:06:32;98572.78;;;21.68;32.19
62524;BME280;53689;56.878;60.672;2022-09-12T09:09:10;98571.38;;;21.72;32.66
62524;BME280;53689;56.878;60.672;2022-09-12T09:11:56;98578.34;;;21.52;33.67
62524;BME280;53689;56.878;60.672;2022-09-12T09:14:44;98578.28;;;21.45;33.73
62524;BME280;53689;56.878;60.672;2022-09-12T09:17:20;98573.81;;;21.67;32.66
62524;BME280;53689;56.878;60.672;2022-09-12T09:19:54;98570.16;;;21.75;32.22
62524;BME280;53689;56.878;60.672;2022-09-12T09:22:39;98575.56;;;21.97;32.32
62524;BME280;53689;56.878;60.672;2022-09-12T09:25:14;98573.78;;;21.30;35.69
62524;BME280;53689;56.878;60.672;2022-09-12T09:27:55;98578.63;;;21.05;35.18
62524;BME280;53689;56.878;60.672;2022-09-12T09:30:24;98572.78;;;21.01;35.79
62524;BME280;53689;56.878;60.672;2022-09-12T09:32:55;98579.34;;;21.29;34.17
62524;BME280;53689;56.878;60.672;2022-09-12T09:35:31;98575.56;;;21.08;34.36
62524;BME280;53689;56.878;60.672;2022-09-12T09:38:15;98579.72;;;21.62;32.81
62524;BME280;53689;56.878;60.672;2022-09-12T09:40:51;98577.41;;;21.74;32.38
62524;BME280;53689;56.878;60.672;2022-09-12T09:43:24;98580.16;;;21.81;32.36
62524;BME280;53689;56.878;60.672;2022-09-12T09:45:52;98567.28;;;21.61;33.30
62524;BME280;53689;56.878;60.672;2022-09-12T09:48:22;98568.59;;;21.14;34.20
62524;BME280;53689;56.878;60.672;2022-09-12T09:50:51;98576.22;;;21.10;34.09
62524;BME280;53689;56.878;60.672;2022-09-12T09:53:31;98577.28;;;21.31;34.00
62524;BME280;53689;56.878;60.672;2022-09-12T09:56:04;98569.25;;;21.01;34.21
62524;BME280;53689;56.878;60.672;2022-09-12T09:58:35;98568.38;;;21.45;33.11
62524;BME280;53689;56.878;60.672;2022-09-12T10:01:04;98578.34;;;21.52;33.15
62524;BME280;53689;56.878;60.672;2022-09-12T10:03:33;98579.84;;;21.69;32.71
62524;BME280;53689;56.878;60.672;2022-09-12T10:06:07;98585.03;;;21.93;31.60
62524;BME280;53689;56.878;60.672;2022-09-12T10:08:48;98584.44;;;22.19;31.47
62524;BME280;53689;56.878;60.672;2022-09-12T10:11:19;98583.50;;;22.27;31.24
62524;BME280;53689;56.878;60.672;2022-09-12T10:13:54;98588.19;;;22.18;31.36
62524;BME280;53689;56.878;60.672;2022-09-12T10:16:24;98588.97;;;22.12;31.70
62524;BME280;53689;56.878;60.672;2022-09-12T10:18:52;98584.22;;;22.14;31.38
62524;BME280;53689;56.878;60.672;2022-09-12T10:21:26;98583.88;;;22.24;31.57
62524;BME280;53689;56.878;60.672;2022-09-12T10:24:03;98589.56;;;22.36;30.95
62524;BME280;53689;56.878;60.672;2022-09-12T10:26:34;98589.06;;;22.25;31.19
62524;BME280;53689;56.878;60.672;2022-09-12T10:29:11;98588.41;;;22.16;31.22
62524;BME280;53689;56.878;60.672;2022-09-12T10:31:49;98593.50;;;22.33;30.98
62524;BME280;53689;56.878;60.672;2022-09-12T10:34:24;98594.75;;;22.30;31.30
62524;BME280;53689;56.878;60.672;2022-09-12T10:36:58;98598.25;;;22.31;31.14
62524;BME280;53689;56.878;60.672;2022-09-12T10:39:26;98599.72;;;22.34;31.63
62524;BME280;53689;56.878;60.672;2022-09-12T10:41:54;98598.47;;;22.29;31.19
62524;BME280;53689;56.878;60.672;2022-09-12T10:44:26;98597.44;;;22.30;31.38
62524;BME280;53689;56.878;60.672;2022-09-12T10:46:55;98600.25;;;22.00;33.13
62524;BME280;53689;56.878;60.672;2022-09-12T10:49:26;98593.78;;;21.58;34.56
62524;BME280;53689;56.878;60.672;2022-09-12T10:51:55;98589.25;;;21.58;33.64
62524;BME280;53689;56.878;60.672;2022-09-12T10:54:25;98588.72;;;21.33;33.60
62524;BME280;53689;56.878;60.672;2022-09-12T10:57:23;98581.13;;;21.21;33.25
62524;BME280;53689;56.878;60.672;2022-09-12T11:00:09;98584.00;;;20.90;33.61
62524;BME280;53689;56.878;60.672;2022-09-12T11:02:49;98582.88;;;21.14;33.42
62524;BME280;53689;56.878;60.672;2022-09-12T11:05:27;98598.94;;;21.07;35.83
62524;BME280;53689;56.878;60.672;2022-09-12T11:08:06;98587.06;;;20.87;35.99
62524;BME280;53689;56.878;60.672;2022-09-12T11:10:43;98595.31;;;20.85;33.89
62524;BME280;53689;56.878;60.672;2022-09-12T11:13:22;98584.84;;;20.90;33.17
62524;BME280;53689;56.878;60.672;2022-09-12T11:16:01;98593.31;;;20.87;33.42
62524;BME280;53689;56.878;60.672;2022-09-12T11:18:44;98596.81;;;20.88;33.00
62524;BME280;53689;56.878;60.672;2022-09-12T11:26:48;98595.78;;;21.04;34.05
62524;BME280;53689;56.878;60.672;2022-09-12T11:29:25;98598.41;;;20.82;33.84
62524;BME280;53689;56.878;60.672;2022-09-12T11:32:08;98603.88;;;20.89;34.03
62524;BME280;53689;56.878;60.672;2022-09-12T11:34:45;98595.06;;;20.95;33.61
62524;BME280;53689;56.878;60.672;2022-09-12T11:37:30;98594.03;;;21.11;33.19
62524;BME280;53689;56.878;60.672;2022-09-12T11:40:06;98603.13;;;21.10;33.25
62524;BME280;53689;56.878;60.672;2022-09-12T11:42:40;98604.88;;;21.18;33.12
62524;BME280;53689;56.878;60.672;2022-09-12T11:45:14;98601.84;;;21.21;32.93
62524;BME280;53689;56.878;60.672;2022-09-12T11:47:48;98597.16;;;21.30;32.93
62524;BME280;53689;56.878;60.672;2022-09-12T11:50:20;98597.16;;;21.45;33.30
62524;BME280;53689;56.878;60.672;2022-09-12T11:52:50;98598.63;;;21.47;32.60
62524;BME280;53689;56.878;60.672;2022-09-12T11:55:22;98605.31;;;21.52;32.65
62524;BME280;53689;56.878;60.672;2022-09-12T11:57:53;98608.91;;;21.59;32.62
62524;BME280;53689;56.878;60.672;2022-09-12T12:00:22;98610.97;;;21.57;32.80
62524;BME280;53689;56.878;60.672;2022-09-12T12:02:54;98619.31;;;21.62;33.47
62524;BME280;53689;56.878;60.672;2022-09-12T12:05:28;98609.38;;;21.62;33.00
62524;BME280;53689;56.878;60.672;2022-09-12T12:07:58;98612.06;;;21.78;32.80
62524;BME280;53689;56.878;60.672;2022-09-12T12:10:32;98606.84;;;21.61;32.96
62524;BME280;53689;56.878;60.672;2022-09-12T12:13:03;98607.94;;;21.30;33.68
62524;BME280;53689;56.878;60.672;2022-09-12T12:15:34;98608.13;;;21.13;33.84
62524;BME280;53689;56.878;60.672;2022-09-12T12:18:06;98604.97;;;20.95;33.96
62524;BME280;53689;56.878;60.672;2022-09-12T12:20:34;98611.31;;;21.02;33.54
62524;BME280;53689;56.878;60.672;2022-09-12T12:23:02;98600.81;;;21.22;33.58
62524;BME280;53689;56.878;60.672;2022-09-12T12:25:40;98606.56;;;22.08;32.22
62524;BME280;53689;56.878;60.672;2022-09-12T12:28:08;98608.41;;;22.29;31.43
62524;BME280;53689;56.878;60.672;2022-09-12T12:30:59;98605.34;;;22.54;31.71
62524;BME280;53689;56.878;60.672;2022-09-12T12:36:41;98605.88;;;22.71;31.32
62524;BME280;53689;56.878;60.672;2022-09-12T12:48:32;98614.91;;;22.92;30.43
62524;BME280;53689;56.878;60.672;2022-09-12T12:51:36;98617.53;;;22.78;30.71
62524;BME280;53689;56.878;60.672;2022-09-12T12:54:31;98621.75;;;22.88;30.63
62524;BME280;53689;56.878;60.672;2022-09-12T12:57:28;98617.22;;;22.95;30.93
62524;BME280;53689;56.878;60.672;2022-09-12T13:00:00;98615.63;;;23.00;30.64
62524;BME280;53689;56.878;60.672;2022-09-12T13:02:30;98618.22;;;22.87;30.76
62524;BME280;53689;56.878;60.672;2022-09-12T13:05:02;98619.69;;;22.90;31.33
62524;BME280;53689;56.878;60.672;2022-09-12T13:07:33;98617.44;;;22.93;31.07
62524;BME280;53689;56.878;60.672;2022-09-12T13:10:04;98623.91;;;22.99;31.25
62524;BME280;53689;56.878;60.672;2022-09-12T13:12:35;98622.91;;;23.07;31.24
62524;BME280;53689;56.878;60.672;2022-09-12T13:18:13;98634.31;;;23.02;31.13
62524;BME280;53689;56.878;60.672;2022-09-12T13:20:46;98637.44;;;23.06;31.28
62524;BME280;53689;56.878;60.672;2022-09-12T13:23:23;98634.75;;;23.06;31.37
62524;BME280;53689;56.878;60.672;2022-09-12T13:25:53;98632.91;;;23.13;30.94
62524;BME280;53689;56.878;60.672;2022-09-12T13:28:21;98636.66;;;23.12;30.87
62524;BME280;53689;56.878;60.672;2022-09-12T13:30:56;98638.31;;;23.13;31.15
62524;BME280;53689;56.878;60.672;2022-09-12T13:33:30;98634.63;;;23.21;30.75
62524;BME280;53689;56.878;60.672;2022-09-12T13:36:12;98636.25;;;23.15;31.37